createdAt,value
2022-12-07T00:01:08.510Z,100878.22
2022-12-07T00:03:36.983Z,100871.66
2022-12-07T00:06:06.488Z,100876.72
2022-12-07T00:08:35.288Z,100874.84
2022-12-07T00:11:04.841Z,100875.97
2022-12-07T00:13:32.557Z,100881.97
2022-12-07T00:16:03.681Z,100881.78
2022-12-07T00:18:33.129Z,100860.81
2022-12-07T00:21:02.704Z,100856.59
2022-12-07T00:23:30.574Z,100858.09
2022-12-07T00:26:04.683Z,100854.25
2022-12-07T00:28:32.484Z,100868.50
2022-12-07T00:31:02.980Z,100862.22
2022-12-07T00:33:32.147Z,100830.13
2022-12-07T00:36:00.581Z,100835.56
2022-12-07T00:38:30.691Z,100859.13
2022-12-07T00:40:58.998Z,100857.81
2022-12-07T00:43:27.108Z,100854.25
2022-12-07T00:45:55.646Z,100859.59
2022-12-07T00:48:24.121Z,100845.75
2022-12-07T00:50:53.382Z,100850.78
2022-12-07T00:53:21.358Z,100851.63
2022-12-07T00:55:49.489Z,100852.47
2022-12-07T00:58:17.431Z,100835.34
2022-12-07T01:00:45.672Z,100852.47
2022-12-07T01:03:15.771Z,100845.00
2022-12-07T01:05:51.472Z,100855.22
2022-12-07T01:08:20.812Z,100847.63
2022-12-07T01:10:48.733Z,100843.97
2022-12-07T01:13:16.825Z,100847.44
2022-12-07T01:15:46.279Z,100846.97
2022-12-07T01:18:14.083Z,100851.44
2022-12-07T01:20:41.798Z,100848.47
2022-12-07T01:23:10.129Z,100836.13
2022-12-07T01:25:39.308Z,100852.69
2022-12-07T01:28:07.109Z,100852.00
2022-12-07T01:30:34.961Z,100850.16
2022-12-07T01:33:02.708Z,100856.84
2022-12-07T01:35:30.431Z,100855.22
2022-12-07T01:37:58.166Z,100851.84
2022-12-07T01:40:25.957Z,100856.13
2022-12-07T01:42:55.010Z,100837.97
2022-12-07T01:45:40.928Z,100852.69
2022-12-07T01:48:12.698Z,100846.38
2022-12-07T01:50:41.752Z,100842.91
2022-12-07T01:53:12.130Z,100846.78
2022-12-07T01:55:44.454Z,100841.13
2022-12-07T01:58:15.189Z,100843.03
2022-12-07T02:00:43.573Z,100841.25
2022-12-07T02:03:17.428Z,100833.25
2022-12-07T02:05:46.213Z,100823.19
2022-12-07T02:08:14.812Z,100805.50
2022-12-07T02:10:42.811Z,100831.03
2022-12-07T02:13:15.129Z,100837.66
2022-12-07T02:16:05.957Z,100835.25
2022-12-07T02:18:46.736Z,100831.88
2022-12-07T02:21:21.929Z,100831.03
2022-12-07T02:24:16.312Z,100818.59
2022-12-07T02:27:16.693Z,100830.66
2022-12-07T02:29:51.825Z,100822.63
2022-12-07T02:32:25.373Z,100828.22
2022-12-07T02:35:00.353Z,100829.69
2022-12-07T02:37:38.483Z,100829.69
2022-12-07T02:40:11.076Z,100832.22
2022-12-07T02:42:43.147Z,100829.25
2022-12-07T02:45:15.897Z,100823.94
2022-12-07T02:47:45.343Z,100813.44
2022-12-07T02:50:13.499Z,100820.56
2022-12-07T02:52:41.230Z,100830.00
2022-12-07T02:55:10.951Z,100818.28
2022-12-07T02:57:54.373Z,100826.38
2022-12-07T03:00:23.800Z,100823.75
2022-12-07T03:03:00.651Z,100820.38
2022-12-07T03:05:46.235Z,100813.63
2022-12-07T03:08:19.474Z,100817.19
2022-12-07T03:10:56.129Z,100821.66
2022-12-07T03:13:30.425Z,100825.63
2022-12-07T03:16:05.350Z,100823.94
2022-12-07T03:18:37.772Z,100821.84
2022-12-07T03:21:11.906Z,100821.59
2022-12-07T03:23:42.825Z,100814.41
2022-12-07T03:26:14.336Z,100813.47
2022-12-07T03:28:45.962Z,100811.59
2022-12-07T03:31:19.198Z,100830.63
2022-12-07T03:33:54.358Z,100816.06
2022-12-07T03:36:28.493Z,100820.81
2022-12-07T03:39:03.129Z,100829.59
2022-12-07T03:41:33.232Z,100821.13
2022-12-07T03:44:01.461Z,100818.50
2022-12-07T03:46:38.808Z,100821.00
2022-12-07T03:49:13.753Z,100827.94
2022-12-07T03:51:48.258Z,100820.81
2022-12-07T03:54:20.725Z,100820.81
2022-12-07T03:56:50.748Z,100821.41
2022-12-07T03:59:19.660Z,100828.69
2022-12-07T04:01:55.037Z,100820.91
2022-12-07T04:04:23.263Z,100825.41
2022-12-07T04:06:51.087Z,100821.66
2022-12-07T04:09:19.228Z,100824.28
2022-12-07T04:11:46.953Z,100826.25
2022-12-07T04:14:20.804Z,100820.06
2022-12-07T04:16:51.337Z,100830.44
2022-12-07T04:19:20.812Z,100831.19
2022-12-07T04:21:49.132Z,100828.50
2022-12-07T04:24:17.888Z,100820.81
2022-12-07T04:26:46.405Z,100814.53
2022-12-07T04:29:15.200Z,100818.84
2022-12-07T04:31:43.058Z,100818.28
2022-12-07T04:34:12.938Z,100817.16
2022-12-07T04:36:41.729Z,100817.91
2022-12-07T04:39:10.756Z,100823.34
2022-12-07T04:41:38.544Z,100820.72
2022-12-07T04:44:08.353Z,100821.66
2022-12-07T04:46:36.176Z,100821.47
2022-12-07T04:49:04.043Z,100823.16
2022-12-07T04:51:33.094Z,100824.00
2022-12-07T04:54:00.841Z,100822.03
2022-12-07T04:56:28.586Z,100822.22
2022-12-07T04:58:56.818Z,100800.84
2022-12-07T05:01:25.359Z,100806.66
2022-12-07T05:03:53.246Z,100810.97
2022-12-07T05:06:21.282Z,100818.09
2022-12-07T05:08:50.575Z,100808.63
2022-12-07T05:11:32.221Z,100809.66
2022-12-07T05:14:00.050Z,100810.63
2022-12-07T05:16:28.269Z,100782.94
2022-12-07T05:18:56.248Z,100810.50
2022-12-07T05:21:24.170Z,100813.25
2022-12-07T05:23:53.588Z,100814.91
2022-12-07T05:26:21.396Z,100822.06
2022-12-07T05:28:52.973Z,100816.81
2022-12-07T05:31:21.160Z,100815.97
2022-12-07T05:33:49.136Z,100824.56
2022-12-07T05:36:17.065Z,100815.13
2022-12-07T05:38:44.872Z,100810.91
2022-12-07T05:41:31.138Z,100814.66
2022-12-07T05:43:58.940Z,100813.81
2022-12-07T05:46:26.704Z,100810.06
2022-12-07T05:48:54.482Z,100818.78
2022-12-07T05:51:22.513Z,100821.41
2022-12-07T05:53:50.301Z,100814.66
2022-12-07T05:56:19.531Z,100810.25
2022-12-07T05:59:04.777Z,100809.41
2022-12-07T06:01:32.716Z,100801.91
2022-12-07T06:04:00.485Z,100813.63
2022-12-07T06:06:28.256Z,100807.28
2022-12-07T06:08:56.122Z,100814.75
2022-12-07T06:11:42.736Z,100813.81
2022-12-07T06:14:10.513Z,100817.47
2022-12-07T06:16:38.361Z,100808.22
2022-12-07T06:19:06.156Z,100811.88
2022-12-07T06:21:33.873Z,100812.91
2022-12-07T06:24:01.603Z,100816.28
2022-12-07T06:26:30.807Z,100810.28
2022-12-07T06:28:58.657Z,100812.81
2022-12-07T06:31:26.523Z,100820.66
2022-12-07T06:33:59.499Z,100826.94
2022-12-07T06:36:27.522Z,100807.41
2022-12-07T06:38:55.782Z,100803.00
2022-12-07T06:41:23.732Z,100827.41
2022-12-07T06:43:56.232Z,100829.81
2022-12-07T06:46:25.124Z,100830.66
2022-12-07T06:48:52.822Z,100832.44
2022-12-07T06:51:20.541Z,100829.94
2022-12-07T06:53:48.269Z,100818.81
2022-12-07T06:56:16.140Z,100820.56
2022-12-07T06:58:43.844Z,100814.88
2022-12-07T07:01:15.254Z,100825.44
2022-12-07T07:03:43.267Z,100810.13
2022-12-07T07:06:11.285Z,100827.88
2022-12-07T07:08:39.938Z,100833.88
2022-12-07T07:11:09.044Z,100826.94
2022-12-07T07:13:37.118Z,100808.34
2022-12-07T07:16:05.147Z,100828.72
2022-12-07T07:18:34.235Z,100840.78
2022-12-07T07:21:02.036Z,100840.63
2022-12-07T07:23:30.170Z,100830.13
2022-12-07T07:25:58.071Z,100837.25
2022-12-07T07:28:25.963Z,100828.44
2022-12-07T07:30:53.736Z,100835.56
2022-12-07T07:33:21.596Z,100831.81
2022-12-07T07:35:50.725Z,100831.91
2022-12-07T07:38:18.405Z,100838.00
2022-12-07T07:40:46.189Z,100828.34
2022-12-07T07:43:13.895Z,100824.88
2022-12-07T07:45:41.721Z,100831.91
2022-12-07T07:48:09.547Z,100818.50
2022-12-07T07:50:37.304Z,100839.78
2022-12-07T07:53:06.325Z,100835.38
2022-12-07T07:55:34.063Z,100836.97
2022-12-07T07:58:01.885Z,100829.38
2022-12-07T08:00:29.598Z,100842.84
2022-12-07T08:02:57.338Z,100844.53
2022-12-07T08:05:25.050Z,100846.38
2022-12-07T08:07:52.765Z,100846.22
2022-12-07T08:10:21.915Z,100847.06
2022-12-07T08:13:07.359Z,100847.81
2022-12-07T08:15:35.110Z,100844.81
2022-12-07T08:18:02.864Z,100849.00
2022-12-07T08:20:32.972Z,100852.56
2022-12-07T08:23:00.825Z,100861.19
2022-12-07T08:25:30.256Z,100859.50
2022-12-07T08:27:57.979Z,100860.66
2022-12-07T08:30:26.153Z,100859.72
2022-12-07T08:32:54.011Z,100859.50
2022-12-07T08:35:22.031Z,100848.81
2022-12-07T08:37:49.745Z,100861.00
2022-12-07T08:40:19.805Z,100861.75
2022-12-07T08:42:52.168Z,100873.56
2022-12-07T08:45:26.678Z,100867.25
2022-12-07T08:47:59.388Z,100866.41
2022-12-07T08:50:27.236Z,100868.50
2022-12-07T08:52:59.048Z,100855.59
2022-12-07T08:55:27.102Z,100871.97
2022-12-07T08:57:56.831Z,100869.25
2022-12-07T09:00:24.771Z,100868.00
2022-12-07T09:02:52.507Z,100868.66
2022-12-07T09:05:20.466Z,100858.00
2022-12-07T09:07:52.849Z,100863.22
2022-12-07T09:10:20.929Z,100858.84
2022-12-07T09:12:48.741Z,100858.09
2022-12-07T09:15:17.910Z,100858.84
2022-12-07T09:17:45.694Z,100861.16
2022-12-07T09:20:14.021Z,100858.00
2022-12-07T09:22:41.785Z,100858.84
2022-12-07T09:25:09.914Z,100859.13
2022-12-07T09:27:37.633Z,100857.34
2022-12-07T09:30:06.647Z,100863.22
2022-12-07T09:32:35.861Z,100863.41
2022-12-07T09:35:03.666Z,100868.66
2022-12-07T09:37:32.753Z,100867.72
2022-12-07T09:40:00.487Z,100857.16
2022-12-07T09:42:31.733Z,100850.50
2022-12-07T09:45:00.956Z,100866.19
2022-12-07T09:47:30.020Z,100866.38
2022-12-07T09:50:05.269Z,100867.31
2022-12-07T09:52:38.708Z,100862.06
2022-12-07T09:55:13.623Z,100853.28
2022-12-07T09:57:42.665Z,100845.22
2022-12-07T10:00:16.555Z,100854.84
2022-12-07T10:02:46.910Z,100854.63
2022-12-07T10:05:24.091Z,100857.91
2022-12-07T10:07:52.570Z,100850.34
2022-12-07T10:10:25.850Z,100845.56
2022-12-07T10:13:00.521Z,100850.44
2022-12-07T10:15:47.342Z,100844.50
2022-12-07T10:18:21.135Z,100843.44
2022-12-07T10:20:50.579Z,100843.44
2022-12-07T10:23:19.829Z,100842.00
2022-12-07T10:25:49.185Z,100828.13
2022-12-07T10:28:18.893Z,100838.19
2022-12-07T10:30:58.666Z,100836.31
2022-12-07T10:33:37.439Z,100831.91
2022-12-07T10:36:21.869Z,100834.25
2022-12-07T10:38:51.881Z,100823.66
2022-12-07T10:41:20.008Z,100826.00
2022-12-07T10:43:56.154Z,100815.13
2022-12-07T10:46:49.528Z,100823.38
2022-12-07T10:49:50.328Z,100818.97
2022-12-07T10:52:32.243Z,100817.91
2022-12-07T10:55:16.430Z,100812.88
2022-12-07T10:57:53.798Z,100816.22
2022-12-07T11:00:24.320Z,100808.47
2022-12-07T11:03:19.932Z,100801.53
2022-12-07T11:05:56.112Z,100797.63
2022-12-07T11:08:41.549Z,100796.28
2022-12-07T11:11:15.058Z,100792.59
2022-12-07T11:13:50.156Z,100791.34
2022-12-07T11:16:32.522Z,100794.72
2022-12-07T11:19:31.070Z,100793.56
2022-12-07T11:22:00.860Z,100791.25
2022-12-07T11:24:38.244Z,100782.44
2022-12-07T11:27:16.765Z,100782.44
2022-12-07T11:30:04.294Z,100778.31
2022-12-07T11:32:51.570Z,100768.97
2022-12-07T11:35:33.103Z,100760.69
2022-12-07T11:38:09.755Z,100766.25
2022-12-07T11:40:40.837Z,100765.00
2022-12-07T11:43:18.452Z,100763.31
2022-12-07T11:45:52.877Z,100759.47
2022-12-07T11:48:30.623Z,100765.03
2022-12-07T11:51:01.282Z,100752.34
2022-12-07T11:53:35.855Z,100759.69
2022-12-07T11:56:10.496Z,100753.72
2022-12-07T11:58:48.386Z,100758.84
2022-12-07T12:01:41.351Z,100752.63
2022-12-07T12:04:25.473Z,100754.13
2022-12-07T12:06:54.053Z,100754.31
2022-12-07T12:09:46.702Z,100750.84
2022-12-07T12:15:36.809Z,100737.50
2022-12-07T12:18:21.562Z,100748.47
2022-12-07T12:20:52.348Z,100739.63
2022-12-07T12:23:24.355Z,100752.88
2022-12-07T12:25:55.198Z,100738.78
2022-12-07T12:28:29.409Z,100740.44
2022-12-07T12:31:09.675Z,100736.19
2022-12-07T12:33:39.615Z,100724.50
2022-12-07T12:36:22.074Z,100731.75
2022-12-07T12:38:51.601Z,100729.13
2022-12-07T12:42:10.261Z,100730.56
2022-12-07T12:45:04.277Z,100726.28
2022-12-07T12:47:44.765Z,100729.53
2022-12-07T12:50:28.297Z,100724.28
2022-12-07T12:53:16.199Z,100717.88
2022-12-07T12:56:22.289Z,100719.47
2022-12-07T12:58:50.180Z,100719.47
2022-12-07T13:01:42.785Z,100709.78
2022-12-07T13:04:28.427Z,100708.59
2022-12-07T13:06:56.246Z,100705.88
2022-12-07T13:09:27.898Z,100710.28
2022-12-07T13:12:03.024Z,100703.31
2022-12-07T13:14:59.622Z,100708.94
2022-12-07T13:18:24.156Z,100703.78
2022-12-07T13:20:54.998Z,100710.72
2022-12-07T13:23:26.939Z,100711.88
2022-12-07T13:26:16.947Z,100705.59
2022-12-07T13:28:48.111Z,100693.81
2022-12-07T13:31:22.135Z,100692.97
2022-12-07T13:33:51.264Z,100687.53
2022-12-07T13:36:23.806Z,100677.88
2022-12-07T13:38:54.842Z,100681.94
2022-12-07T13:41:24.105Z,100677.13
2022-12-07T13:43:55.249Z,100682.38
2022-12-07T13:46:32.995Z,100683.13
2022-12-07T13:49:02.234Z,100673.25
2022-12-07T13:51:30.651Z,100669.88
2022-12-07T13:54:03.495Z,100668.19
2022-12-07T13:56:35.398Z,100671.25
2022-12-07T13:59:03.542Z,100668.94
2022-12-07T14:01:33.805Z,100664.63
2022-12-07T14:04:21.074Z,100662.75
2022-12-07T14:06:51.553Z,100666.31
2022-12-07T14:09:22.118Z,100665.47
2022-12-07T14:11:51.563Z,100656.75
2022-12-07T14:14:21.977Z,100661.16
2022-12-07T14:17:01.645Z,100655.91
2022-12-07T14:19:52.436Z,100650.78
2022-12-07T14:22:31.822Z,100650.56
2022-12-07T14:25:21.565Z,100656.44
2022-12-07T14:27:56.921Z,100642.91
2022-12-07T14:30:26.938Z,100633.97
2022-12-07T14:32:58.302Z,100641.63
2022-12-07T14:35:27.827Z,100637.53
2022-12-07T14:37:55.557Z,100633.38
2022-12-07T14:40:25.470Z,100636.50
2022-12-07T14:42:56.775Z,100635.44
2022-12-07T14:45:25.326Z,100629.34
2022-12-07T14:53:37.596Z,100622.63
2022-12-07T14:56:07.023Z,100615.47
2022-12-07T14:58:34.953Z,100618.22
2022-12-07T15:01:03.093Z,100610.22
2022-12-07T15:03:31.757Z,100604.97
2022-12-07T15:06:01.004Z,100610.13
2022-12-07T15:08:29.600Z,100610.03
2022-12-07T15:10:57.342Z,100604.97
2022-12-07T15:13:44.951Z,100615.28
2022-12-07T15:16:16.538Z,100611.91
2022-12-07T15:18:53.191Z,100616.53
2022-12-07T15:21:33.470Z,100609.84
2022-12-07T15:24:01.171Z,100622.53
2022-12-07T15:26:28.903Z,100614.88
2022-12-07T15:28:56.866Z,100600.59
2022-12-07T15:31:54.108Z,100615.06
2022-12-07T15:34:14.144Z,100618.88
2022-12-07T15:36:47.968Z,100576.78
2022-12-07T15:39:16.808Z,100599.22
2022-12-07T15:41:44.697Z,100603.53
2022-12-07T15:44:31.514Z,100615.28
2022-12-07T15:46:59.539Z,100603.53
2022-12-07T15:49:29.753Z,100602.69
2022-12-07T15:51:59.192Z,100607.00
2022-12-07T15:54:30.821Z,100598.88
2022-12-07T15:57:00.293Z,100611.59
2022-12-07T15:59:29.492Z,100608.13
2022-12-07T16:01:57.931Z,100606.16
2022-12-07T16:04:26.251Z,100599.22
2022-12-07T16:06:54.469Z,100592.59
2022-12-07T16:09:23.718Z,100606.34
2022-12-07T16:11:53.085Z,100601.13
2022-12-07T16:14:20.937Z,100606.25
2022-12-07T16:16:49.085Z,100596.59
2022-12-07T16:19:25.476Z,100601.66
2022-12-07T16:21:56.131Z,100599.97
2022-12-07T16:24:31.945Z,100596.50
2022-12-07T16:27:01.862Z,100592.84
2022-12-07T16:29:29.604Z,100563.75
2022-12-07T16:31:57.624Z,100569.09
2022-12-07T16:34:25.471Z,100595.97
2022-12-07T16:37:08.490Z,100592.59
2022-12-07T16:39:38.594Z,100602.25
2022-12-07T16:42:06.556Z,100594.28
2022-12-07T16:44:34.271Z,100592.19
2022-12-07T16:47:02.554Z,100582.97
2022-12-07T16:49:30.644Z,100593.03
2022-12-07T16:52:18.696Z,100586.31
2022-12-07T16:54:47.469Z,100581.91
2022-12-07T16:57:20.183Z,100576.66
2022-12-07T16:59:49.614Z,100579.19
2022-12-07T17:02:17.321Z,100575.44
2022-12-07T17:04:45.106Z,100573.53
2022-12-07T17:07:13.289Z,100549.81
2022-12-07T17:09:41.119Z,100568.28
2022-12-07T17:12:10.197Z,100566.63
2022-12-07T17:14:55.301Z,100559.69
2022-12-07T17:17:23.016Z,100569.97
2022-12-07T17:19:50.815Z,100557.16
2022-12-07T17:22:18.542Z,100563.06
2022-12-07T17:24:46.238Z,100564.00
2022-12-07T17:27:15.346Z,100564.94
2022-12-07T17:29:43.073Z,100564.72
2022-12-07T17:32:10.988Z,100556.97
2022-12-07T17:34:38.852Z,100559.88
2022-12-07T17:37:06.682Z,100553.06
2022-12-07T17:39:35.291Z,100548.66
2022-12-07T17:42:23.005Z,100544.47
2022-12-07T17:44:52.051Z,100541.63
2022-12-07T17:47:21.587Z,100539.84
2022-12-07T17:49:49.373Z,100542.28
2022-12-07T17:52:34.812Z,100537.22
2022-12-07T17:55:02.924Z,100541.84
2022-12-07T17:57:31.564Z,100520.22
2022-12-07T18:00:00.843Z,100535.00
2022-12-07T18:02:28.579Z,100534.91
2022-12-07T18:04:56.371Z,100531.25
2022-12-07T18:07:24.564Z,100525.06
2022-12-07T18:09:52.333Z,100522.34
2022-12-07T18:12:20.059Z,100525.25
2022-12-07T18:14:48.992Z,100525.25
2022-12-07T18:17:18.075Z,100516.44
2022-12-07T18:19:45.934Z,100518.34
2022-12-07T18:22:13.714Z,100514.78
2022-12-07T18:24:41.450Z,100510.06
2022-12-07T18:27:09.176Z,100508.78
2022-12-07T18:29:37.092Z,100490.03
2022-12-07T18:32:06.074Z,100500.91
2022-12-07T18:34:35.247Z,100501.56
2022-12-07T18:37:02.998Z,100503.34
2022-12-07T18:39:33.926Z,100494.44
2022-12-07T18:42:02.223Z,100504.72
2022-12-07T18:44:30.137Z,100500.09
2022-12-07T18:47:00.557Z,100497.69
2022-12-07T18:49:28.311Z,100501.34
2022-12-07T18:51:57.379Z,100492.75
2022-12-07T18:54:25.285Z,100492.66
2022-12-07T18:56:57.370Z,100495.38
2022-12-07T18:59:42.723Z,100496.13
2022-12-07T19:02:11.766Z,100485.84
2022-12-07T19:04:39.538Z,100486.66
2022-12-07T19:07:08.642Z,100490.22
2022-12-07T19:09:36.586Z,100490.88
2022-12-07T19:12:05.500Z,100495.28
2022-12-07T19:14:35.999Z,100487.72
2022-12-07T19:17:06.828Z,100487.72
2022-12-07T19:19:37.429Z,100493.69
2022-12-07T19:22:08.275Z,100489.41
2022-12-07T19:24:39.188Z,100486.88
2022-12-07T19:27:08.798Z,100490.13
2022-12-07T19:29:38.410Z,100483.41
2022-12-07T19:32:08.927Z,100482.28
2022-12-07T19:34:37.170Z,100486.03
2022-12-07T19:37:05.488Z,100474.50
2022-12-07T19:39:34.892Z,100477.22
2022-12-07T19:42:02.885Z,100478.81
2022-12-07T19:44:34.317Z,100476.19
2022-12-07T19:47:05.262Z,100470.84
2022-12-07T19:49:35.106Z,100465.69
2022-12-07T19:52:06.048Z,100466.22
2022-12-07T19:54:36.027Z,100476.38
2022-12-07T19:57:05.553Z,100472.81
2022-12-07T19:59:33.821Z,100469.47
2022-12-07T20:02:01.546Z,100461.69
2022-12-07T20:04:32.405Z,100465.25
2022-12-07T20:07:01.421Z,100458.25
2022-12-07T20:09:29.490Z,100465.25
2022-12-07T20:12:15.876Z,100464.56
2022-12-07T20:14:43.694Z,100461.94
2022-12-07T20:17:11.760Z,100459.72
2022-12-07T20:19:40.241Z,100458.16
2022-12-07T20:22:08.322Z,100450.59
2022-12-07T20:24:36.424Z,100453.94
2022-12-07T20:27:06.500Z,100449.66
2022-12-07T20:29:34.560Z,100450.59
2022-12-07T20:32:02.399Z,100447.88
2022-12-07T20:34:30.310Z,100450.59
2022-12-07T20:36:58.311Z,100441.03
2022-12-07T20:39:26.274Z,100442.22
2022-12-07T20:42:11.659Z,100435.19
2022-12-07T20:44:40.971Z,100441.28
2022-12-07T20:47:08.717Z,100437.91
2022-12-07T20:49:36.416Z,100438.44
2022-12-07T20:52:04.845Z,100442.22
2022-12-07T20:54:32.588Z,100440.44
2022-12-07T20:57:00.346Z,100435.94
2022-12-07T20:59:28.086Z,100429.84
2022-12-07T21:01:57.196Z,100429.72
2022-12-07T21:04:25.034Z,100431.75
2022-12-07T21:06:52.747Z,100428.06
2022-12-07T21:09:26.484Z,100433.41
2022-12-07T21:11:54.794Z,100433.19
2022-12-07T21:14:22.643Z,100427.63
2022-12-07T21:16:51.181Z,100423.78
2022-12-07T21:19:20.308Z,100422.94
2022-12-07T21:21:48.144Z,100424.38
2022-12-07T21:24:15.938Z,100424.72
2022-12-07T21:26:43.633Z,100421.97
2022-12-07T21:29:11.393Z,100418.31
2022-12-07T21:31:39.135Z,100427.00
2022-12-07T21:34:07.341Z,100417.06
2022-12-07T21:36:36.795Z,100411.09
2022-12-07T21:39:05.669Z,100414.53
2022-12-07T21:41:35.545Z,100406.38
2022-12-07T21:44:06.445Z,100401.94
2022-12-07T21:46:34.913Z,100409.59
2022-12-07T21:49:05.192Z,100403.75
2022-12-07T21:51:33.314Z,100393.47
2022-12-07T21:54:03.748Z,100393.47
2022-12-07T21:56:33.455Z,100388.75
2022-12-07T21:59:02.934Z,100383.50
2022-12-07T22:01:35.591Z,100397.16
2022-12-07T22:04:05.300Z,100381.97
2022-12-07T22:06:34.509Z,100393.47
2022-12-07T22:09:04.933Z,100387.28
2022-12-07T22:11:32.621Z,100394.31
2022-12-07T22:14:18.124Z,100395.91
2022-12-07T22:16:45.834Z,100399.47
2022-12-07T22:19:13.988Z,100395.06
2022-12-07T22:21:41.699Z,100395.25
2022-12-07T22:24:12.966Z,100390.31
2022-12-07T22:26:40.747Z,100389.38
2022-12-07T22:29:08.501Z,100385.63
2022-12-07T22:31:37.990Z,100390.31
2022-12-07T22:34:05.884Z,100389.19
2022-12-07T22:36:33.633Z,100388.34
2022-12-07T22:39:02.491Z,100372.81
2022-12-07T22:41:33.185Z,100375.13
2022-12-07T22:44:01.592Z,100380.97
2022-12-07T22:46:29.668Z,100365.41
2022-12-07T22:48:57.381Z,100362.78
2022-12-07T22:51:27.087Z,100369.06
2022-12-07T22:53:55.334Z,100370.94
2022-12-07T22:56:23.475Z,100361.94
2022-12-07T22:58:52.976Z,100348.13
2022-12-07T23:01:22.446Z,100350.41
2022-12-07T23:03:50.991Z,100352.69
2022-12-07T23:06:20.924Z,100347.16
2022-12-07T23:08:49.100Z,100347.38
2022-12-07T23:11:38.807Z,100342.75
2022-12-07T23:14:13.012Z,100332.16
2022-12-07T23:16:41.609Z,100339.28
2022-12-07T23:19:09.393Z,100340.34
2022-12-07T23:21:37.221Z,100338.47
2022-12-07T23:27:02.044Z,100340.53
2022-12-07T23:29:31.147Z,100334.47
2022-12-07T23:31:58.986Z,100328.81
2022-12-07T23:34:26.827Z,100320.25
2022-12-07T23:36:54.587Z,100321.69
2022-12-07T23:39:22.344Z,100314.16
2022-12-07T23:41:50.100Z,100314.91
2022-12-07T23:44:19.030Z,100312.28
2022-12-07T23:46:48.513Z,100304.06
2022-12-07T23:49:16.282Z,100307.22
2022-12-07T23:51:44.289Z,100309.41
2022-12-07T23:54:12.645Z,100299.03
2022-12-07T23:56:40.663Z,100286.69
2022-12-07T23:59:08.411Z,100293.09
